createdAt,value
2022-07-29T00:01:03.709Z,2.28
2022-07-29T00:03:30.287Z,2.80
2022-07-29T00:05:56.856Z,3.10
2022-07-29T00:08:23.391Z,2.70
2022-07-29T00:10:50.824Z,2.92
2022-07-29T00:13:17.332Z,2.67
2022-07-29T00:15:43.799Z,2.83
2022-07-29T00:18:10.249Z,3.05
2022-07-29T00:20:36.839Z,2.90
2022-07-29T00:23:03.274Z,2.90
2022-07-29T00:25:29.794Z,3.30
2022-07-29T00:27:57.223Z,3.05
2022-07-29T00:30:23.811Z,3.33
2022-07-29T00:32:50.271Z,2.95
2022-07-29T00:35:35.169Z,3.70
2022-07-29T00:38:02.148Z,3.00
2022-07-29T00:40:28.741Z,3.33
2022-07-29T00:42:55.199Z,3.42
2022-07-29T00:45:22.930Z,3.20
2022-07-29T00:47:50.147Z,2.85
2022-07-29T00:50:16.941Z,2.85
2022-07-29T00:52:44.172Z,2.90
2022-07-29T00:55:13.335Z,2.78
2022-07-29T00:57:41.709Z,3.90
2022-07-29T01:00:11.041Z,4.00
2022-07-29T01:02:38.006Z,4.35
2022-07-29T01:05:06.236Z,3.83
2022-07-29T01:07:35.874Z,3.97
2022-07-29T01:10:05.446Z,4.20
2022-07-29T01:12:34.678Z,4.20
2022-07-29T01:15:03.495Z,4.20
2022-07-29T01:17:37.943Z,4.07
2022-07-29T01:20:10.409Z,3.97
2022-07-29T01:23:01.285Z,3.60
2022-07-29T01:25:50.730Z,3.45
2022-07-29T01:28:43.802Z,3.25
2022-07-29T01:31:23.738Z,3.42
2022-07-29T01:34:02.679Z,3.25
2022-07-29T01:36:36.577Z,3.67
2022-07-29T01:39:33.314Z,3.22
2022-07-29T01:42:22.815Z,3.80
2022-07-29T01:45:01.319Z,3.42
2022-07-29T01:47:55.061Z,3.85
2022-07-29T01:50:27.178Z,3.50
2022-07-29T01:52:57.322Z,3.50
2022-07-29T01:55:28.620Z,3.42
2022-07-29T01:57:57.260Z,3.80
2022-07-29T02:00:24.729Z,3.78
2022-07-29T02:02:53.707Z,4.00
2022-07-29T02:05:22.654Z,3.38
2022-07-29T02:07:50.515Z,3.45
2022-07-29T02:10:20.479Z,3.88
2022-07-29T02:12:54.556Z,3.53
2022-07-29T02:15:21.915Z,3.70
2022-07-29T02:17:55.732Z,3.53
2022-07-29T02:20:24.682Z,3.13
2022-07-29T02:22:53.060Z,3.88
2022-07-29T02:25:21.958Z,3.88
2022-07-29T02:27:51.550Z,3.78
2022-07-29T02:30:20.616Z,3.78
2022-07-29T02:32:48.409Z,3.78
2022-07-29T02:35:17.123Z,4.35
2022-07-29T02:38:06.484Z,4.20
2022-07-29T02:40:35.861Z,4.85
2022-07-29T02:43:05.129Z,4.55
2022-07-29T02:45:33.377Z,4.93
2022-07-29T02:48:01.813Z,5.55
2022-07-29T02:50:35.529Z,4.47
2022-07-29T02:53:17.216Z,4.75
2022-07-29T02:56:10.121Z,4.25
2022-07-29T02:58:41.973Z,4.30
2022-07-29T03:01:21.416Z,4.03
2022-07-29T03:03:50.625Z,3.70
2022-07-29T03:06:28.199Z,4.13
2022-07-29T03:09:07.826Z,3.78
2022-07-29T03:11:42.337Z,3.88
2022-07-29T03:14:18.045Z,3.83
2022-07-29T03:16:45.168Z,4.10
2022-07-29T03:19:12.069Z,4.22
2022-07-29T03:21:38.517Z,3.90
2022-07-29T03:24:10.061Z,4.05
2022-07-29T03:26:37.168Z,4.13
2022-07-29T03:29:03.656Z,4.30
2022-07-29T03:31:30.194Z,4.63
2022-07-29T03:33:56.881Z,4.30
2022-07-29T03:36:23.322Z,4.22
2022-07-29T03:38:50.423Z,4.40
2022-07-29T03:41:22.316Z,3.92
2022-07-29T03:43:51.134Z,4.00
2022-07-29T03:46:18.884Z,4.40
2022-07-29T03:48:49.650Z,3.92
2022-07-29T03:51:16.377Z,4.28
2022-07-29T03:53:43.630Z,5.00
2022-07-29T03:56:11.242Z,4.07
2022-07-29T03:58:39.140Z,4.63
2022-07-29T04:01:05.889Z,4.15
2022-07-29T04:03:32.460Z,4.30
2022-07-29T04:06:07.472Z,4.32
2022-07-29T04:08:34.577Z,5.00
2022-07-29T04:11:02.389Z,4.68
2022-07-29T04:13:28.976Z,4.35
2022-07-29T04:15:55.482Z,4.47
2022-07-29T04:18:22.289Z,4.82
2022-07-29T04:20:48.773Z,4.75
2022-07-29T04:23:15.331Z,4.55
2022-07-29T04:25:42.913Z,4.35
2022-07-29T04:28:10.570Z,4.25
2022-07-29T04:30:38.127Z,4.35
2022-07-29T04:33:06.928Z,4.25
2022-07-29T04:35:38.901Z,4.45
2022-07-29T04:38:17.275Z,4.57
2022-07-29T04:40:43.986Z,3.95
2022-07-29T04:43:10.585Z,4.47
2022-07-29T04:45:39.113Z,4.13
2022-07-29T04:48:05.791Z,4.97
2022-07-29T04:50:32.794Z,4.45
2022-07-29T04:52:59.281Z,4.80
2022-07-29T04:55:26.308Z,5.20
2022-07-29T04:57:52.770Z,4.90
2022-07-29T05:00:19.250Z,5.25
2022-07-29T05:02:45.817Z,4.90
2022-07-29T05:05:12.413Z,4.28
2022-07-29T05:07:41.775Z,4.55
2022-07-29T05:10:08.916Z,3.65
2022-07-29T05:12:35.525Z,3.95
2022-07-29T05:15:01.957Z,4.03
2022-07-29T05:17:28.478Z,3.30
2022-07-29T05:19:54.926Z,3.70
2022-07-29T05:22:21.877Z,3.05
2022-07-29T05:24:48.627Z,3.20
2022-07-29T05:27:15.236Z,2.92
2022-07-29T05:29:44.298Z,2.30
2022-07-29T05:32:12.806Z,2.38
2022-07-29T05:34:50.877Z,2.80
2022-07-29T05:37:19.988Z,2.42
2022-07-29T05:39:49.090Z,3.00
2022-07-29T05:42:17.524Z,2.63
2022-07-29T05:44:44.017Z,2.53
2022-07-29T05:47:10.545Z,2.55
2022-07-29T05:49:37.037Z,2.70
2022-07-29T05:52:04.258Z,2.58
2022-07-29T05:54:30.787Z,2.65
2022-07-29T05:56:57.506Z,2.80
2022-07-29T05:59:28.339Z,2.33
2022-07-29T06:01:58.070Z,2.40
2022-07-29T06:04:24.769Z,2.45
2022-07-29T06:06:51.333Z,3.75
2022-07-29T06:09:17.788Z,5.15
2022-07-29T06:11:44.230Z,5.90
2022-07-29T06:14:10.721Z,6.20
2022-07-29T06:16:37.305Z,5.68
2022-07-29T06:19:03.852Z,5.65
2022-07-29T06:21:30.373Z,5.82
2022-07-29T06:23:56.930Z,5.50
2022-07-29T06:26:30.315Z,5.57
2022-07-29T06:28:58.130Z,5.63
2022-07-29T06:31:24.719Z,5.20
2022-07-29T06:33:51.528Z,5.70
2022-07-29T06:36:21.714Z,5.65
2022-07-29T06:38:51.360Z,5.72
2022-07-29T06:41:19.008Z,5.75
2022-07-29T06:43:52.586Z,4.18
2022-07-29T06:46:22.450Z,5.10
2022-07-29T06:48:49.747Z,4.53
2022-07-29T06:51:22.977Z,4.97
2022-07-29T06:54:00.140Z,4.30
2022-07-29T06:56:30.738Z,4.57
2022-07-29T06:58:57.182Z,4.40
2022-07-29T07:01:23.842Z,4.75
2022-07-29T07:03:50.404Z,4.32
2022-07-29T07:06:17.310Z,4.45
2022-07-29T07:08:43.804Z,4.80
2022-07-29T07:11:10.301Z,5.07
2022-07-29T07:13:37.010Z,4.80
2022-07-29T07:16:04.608Z,4.25
2022-07-29T07:18:31.580Z,3.95
2022-07-29T07:20:58.375Z,3.35
2022-07-29T07:23:24.964Z,3.63
2022-07-29T07:25:52.119Z,3.53
2022-07-29T07:28:19.580Z,3.33
2022-07-29T07:30:51.796Z,3.65
2022-07-29T07:33:18.327Z,3.03
2022-07-29T07:35:45.224Z,2.67
2022-07-29T07:38:11.794Z,2.70
2022-07-29T07:40:38.466Z,2.92
2022-07-29T07:43:05.039Z,3.00
2022-07-29T07:45:33.601Z,2.92
2022-07-29T07:48:00.161Z,2.92
2022-07-29T07:50:26.958Z,2.65
2022-07-29T07:52:56.073Z,2.88
2022-07-29T07:55:22.589Z,2.70
2022-07-29T07:57:49.089Z,2.50
2022-07-29T08:00:16.994Z,2.67
2022-07-29T08:02:44.066Z,2.50
2022-07-29T08:05:12.581Z,2.78
2022-07-29T08:07:39.537Z,2.83
2022-07-29T08:10:06.532Z,3.28
2022-07-29T08:12:33.088Z,2.72
2022-07-29T08:14:59.812Z,2.45
2022-07-29T08:17:27.521Z,2.30
2022-07-29T08:19:53.991Z,2.33
2022-07-29T08:22:20.697Z,2.10
2022-07-29T08:24:57.113Z,2.90
2022-07-29T08:30:11.244Z,2.30
2022-07-29T08:32:53.340Z,2.30
2022-07-29T08:37:48.660Z,2.28
2022-07-29T08:40:15.460Z,1.95
2022-07-29T08:42:42.150Z,2.30
2022-07-29T08:45:09.414Z,1.92
2022-07-29T08:47:40.380Z,1.90
2022-07-29T08:50:09.107Z,1.75
2022-07-29T08:52:40.946Z,1.90
2022-07-29T08:55:09.829Z,1.83
2022-07-29T08:57:37.469Z,2.10
2022-07-29T09:00:07.983Z,1.70
2022-07-29T09:02:43.120Z,1.85
2022-07-29T09:05:13.604Z,1.90
2022-07-29T09:07:42.955Z,1.88
2022-07-29T09:10:09.888Z,1.70
2022-07-29T09:12:38.229Z,2.00
2022-07-29T09:15:05.323Z,1.67
2022-07-29T09:17:49.599Z,1.63
2022-07-29T09:20:24.018Z,1.60
2022-07-29T09:22:53.663Z,1.60
2022-07-29T09:25:37.517Z,1.30
2022-07-29T09:28:17.394Z,1.40
2022-07-29T09:30:53.385Z,1.33
2022-07-29T09:33:22.328Z,1.67
2022-07-29T09:36:00.565Z,1.38
2022-07-29T09:38:28.436Z,1.77
2022-07-29T09:41:01.739Z,1.48
2022-07-29T09:43:33.075Z,1.40
2022-07-29T09:46:13.509Z,1.00
2022-07-29T09:48:40.370Z,1.45
2022-07-29T09:51:20.626Z,1.23
2022-07-29T09:53:48.773Z,1.23
2022-07-29T09:56:15.386Z,1.40
2022-07-29T09:58:41.875Z,1.50
2022-07-29T10:01:08.512Z,1.55
2022-07-29T10:03:51.781Z,1.00
2022-07-29T10:06:18.335Z,1.20
2022-07-29T10:08:44.936Z,1.10
2022-07-29T10:11:19.288Z,1.48
2022-07-29T10:13:48.528Z,1.27
2022-07-29T10:16:16.006Z,1.33
2022-07-29T10:18:44.723Z,1.30
2022-07-29T10:21:34.446Z,1.15
2022-07-29T10:24:01.154Z,1.00
2022-07-29T10:26:27.922Z,1.20
2022-07-29T10:28:54.413Z,1.08
2022-07-29T10:31:30.571Z,1.27
2022-07-29T10:34:19.242Z,1.13
2022-07-29T10:37:04.880Z,1.42
2022-07-29T10:39:50.820Z,1.55
2022-07-29T10:42:33.553Z,1.50
2022-07-29T10:45:02.334Z,1.35
2022-07-29T10:47:29.006Z,1.13
2022-07-29T10:50:04.459Z,1.50
2022-07-29T10:52:51.113Z,1.30
2022-07-29T10:55:31.628Z,1.70
2022-07-29T10:58:19.472Z,1.27
2022-07-29T11:00:48.077Z,1.10
2022-07-29T11:07:06.169Z,1.58
2022-07-29T11:09:37.685Z,1.60
2022-07-29T11:12:25.057Z,1.27
2022-07-29T11:14:54.243Z,1.63
2022-07-29T11:17:23.427Z,1.77
2022-07-29T11:19:52.335Z,1.35
2022-07-29T11:22:36.465Z,1.17
2022-07-29T11:25:50.988Z,1.25
2022-07-29T11:28:22.747Z,1.40
2022-07-29T11:30:53.941Z,1.30
2022-07-29T11:33:55.888Z,1.73
2022-07-29T11:36:28.002Z,1.40
2022-07-29T11:39:27.137Z,1.30
2022-07-29T11:42:32.164Z,1.20
2022-07-29T11:45:41.477Z,1.27
2022-07-29T11:47:57.795Z,1.30
2022-07-29T11:50:37.901Z,1.20
2022-07-29T11:53:13.292Z,1.35
2022-07-29T11:55:51.816Z,1.13
2022-07-29T11:58:25.025Z,1.13
2022-07-29T12:00:52.620Z,1.23
2022-07-29T12:03:32.946Z,1.30
2022-07-29T12:06:02.532Z,1.40
2022-07-29T12:08:29.028Z,1.60
2022-07-29T12:10:55.669Z,1.35
2022-07-29T12:13:22.925Z,1.05
2022-07-29T12:16:03.983Z,1.45
2022-07-29T12:18:30.520Z,1.40
2022-07-29T12:21:03.410Z,1.15
2022-07-29T12:23:34.353Z,1.40
2022-07-29T12:26:04.535Z,1.50
2022-07-29T12:28:32.043Z,1.38
2022-07-29T12:30:58.596Z,1.50
2022-07-29T12:33:30.535Z,1.38
2022-07-29T12:36:17.127Z,1.20
2022-07-29T12:38:44.415Z,1.80
2022-07-29T12:41:11.405Z,1.70
2022-07-29T12:43:37.975Z,1.30
2022-07-29T12:46:14.892Z,1.58
2022-07-29T12:48:43.474Z,1.20
2022-07-29T12:51:11.097Z,1.60
2022-07-29T12:53:38.908Z,1.50
2022-07-29T12:56:20.732Z,1.38
2022-07-29T12:58:53.072Z,1.35
2022-07-29T13:01:21.697Z,1.92
2022-07-29T13:03:56.941Z,1.60
2022-07-29T13:06:34.723Z,1.50
2022-07-29T13:09:06.606Z,1.60
2022-07-29T13:11:35.398Z,1.80
2022-07-29T13:14:06.535Z,1.45
2022-07-29T13:16:33.923Z,1.63
2022-07-29T13:19:05.687Z,1.83
2022-07-29T13:21:32.132Z,1.73
2022-07-29T13:24:02.083Z,1.33
2022-07-29T13:26:28.864Z,1.30
2022-07-29T13:28:56.069Z,1.30
2022-07-29T13:31:23.070Z,1.30
2022-07-29T13:33:49.678Z,1.20
2022-07-29T13:36:16.124Z,1.30
2022-07-29T13:38:42.966Z,1.40
2022-07-29T13:41:09.501Z,1.50
2022-07-29T13:43:37.063Z,1.92
2022-07-29T13:46:03.529Z,1.40
2022-07-29T13:48:30.037Z,1.30
2022-07-29T13:50:57.645Z,1.30
2022-07-29T13:53:26.926Z,1.58
2022-07-29T13:55:54.150Z,1.67
2022-07-29T13:58:20.636Z,1.50
2022-07-29T14:00:47.644Z,1.40
2022-07-29T14:03:14.165Z,1.92
2022-07-29T14:05:40.658Z,1.35
2022-07-29T14:08:07.122Z,1.40
2022-07-29T14:10:33.643Z,1.38
2022-07-29T14:13:00.107Z,1.35
2022-07-29T14:15:26.639Z,1.48
2022-07-29T14:17:53.105Z,1.40
2022-07-29T14:20:20.192Z,1.83
2022-07-29T14:22:46.696Z,1.30
2022-07-29T14:25:14.485Z,1.27
2022-07-29T14:27:41.786Z,1.35
2022-07-29T14:30:09.319Z,1.42
2022-07-29T14:32:35.882Z,1.30
2022-07-29T14:35:02.380Z,1.20
2022-07-29T14:37:28.946Z,1.15
2022-07-29T14:40:08.906Z,1.45
2022-07-29T14:42:35.452Z,1.40
2022-07-29T14:45:01.917Z,1.20
2022-07-29T14:47:28.416Z,1.25
2022-07-29T14:49:54.860Z,1.13
2022-07-29T14:52:21.446Z,1.30
2022-07-29T14:54:47.960Z,1.27
2022-07-29T14:57:14.501Z,1.02
2022-07-29T14:59:41.017Z,1.80
2022-07-29T15:02:07.533Z,1.40
2022-07-29T15:04:34.426Z,1.40
2022-07-29T15:07:01.180Z,1.25
2022-07-29T15:09:27.890Z,1.38
2022-07-29T15:11:54.940Z,1.30
2022-07-29T15:14:21.423Z,1.33
2022-07-29T15:16:48.361Z,1.35
2022-07-29T15:19:15.060Z,1.48
2022-07-29T15:21:48.148Z,1.10
2022-07-29T15:24:16.761Z,1.48
2022-07-29T15:26:43.882Z,1.50
2022-07-29T15:29:10.538Z,1.17
2022-07-29T15:31:37.178Z,1.30
2022-07-29T15:34:06.249Z,1.17
2022-07-29T15:36:51.522Z,1.52
2022-07-29T15:39:19.248Z,1.10
2022-07-29T15:41:45.698Z,1.40
2022-07-29T15:44:12.159Z,1.30
2022-07-29T15:46:57.382Z,1.75
2022-07-29T15:49:24.539Z,1.50
2022-07-29T15:51:50.993Z,1.23
2022-07-29T15:54:17.749Z,1.15
2022-07-29T15:56:44.217Z,1.00
2022-07-29T15:59:10.677Z,0.95
2022-07-29T16:01:49.356Z,1.30
2022-07-29T16:04:17.446Z,1.35
2022-07-29T16:06:46.121Z,1.30
2022-07-29T16:09:13.295Z,1.73
2022-07-29T16:11:39.998Z,1.20
2022-07-29T16:14:06.794Z,1.92
2022-07-29T16:16:35.789Z,1.13
2022-07-29T16:19:02.322Z,1.20
2022-07-29T16:21:28.752Z,1.23
2022-07-29T16:23:55.306Z,1.30
2022-07-29T16:26:21.855Z,1.23
2022-07-29T16:28:48.304Z,1.30
2022-07-29T16:31:15.497Z,1.20
2022-07-29T16:33:55.312Z,1.05
2022-07-29T16:36:22.861Z,1.15
2022-07-29T16:38:51.201Z,1.40
2022-07-29T16:41:17.715Z,1.70
2022-07-29T16:43:44.406Z,2.30
2022-07-29T16:46:13.114Z,1.30
2022-07-29T16:48:45.384Z,1.10
2022-07-29T16:51:12.109Z,1.30
2022-07-29T16:53:41.297Z,1.33
2022-07-29T16:56:08.555Z,1.48
2022-07-29T16:58:43.055Z,1.40
2022-07-29T17:01:10.170Z,1.30
2022-07-29T17:03:59.945Z,1.55
2022-07-29T17:06:27.366Z,1.40
2022-07-29T17:08:53.790Z,1.67
2022-07-29T17:11:20.314Z,2.03
2022-07-29T17:13:46.881Z,1.40
2022-07-29T17:16:13.391Z,1.52
2022-07-29T17:18:39.894Z,1.10
2022-07-29T17:21:06.316Z,1.67
2022-07-29T17:23:32.796Z,1.17
2022-07-29T17:25:59.309Z,1.00
2022-07-29T17:28:25.740Z,1.50
2022-07-29T17:30:52.179Z,1.30
2022-07-29T17:33:18.755Z,1.20
2022-07-29T17:36:03.544Z,1.42
2022-07-29T17:38:30.068Z,1.55
2022-07-29T17:40:56.640Z,1.17
2022-07-29T17:43:23.094Z,1.23
2022-07-29T17:45:50.881Z,1.10
2022-07-29T17:48:18.831Z,1.23
2022-07-29T17:50:46.036Z,1.52
2022-07-29T17:54:30.491Z,1.60
2022-07-29T17:56:57.337Z,1.38
2022-07-29T17:59:23.999Z,1.08
2022-07-29T18:01:50.560Z,1.13
2022-07-29T18:04:20.873Z,1.27
2022-07-29T18:06:47.353Z,1.33
2022-07-29T18:09:13.915Z,1.33
2022-07-29T18:11:40.600Z,1.35
2022-07-29T18:14:10.962Z,1.60
2022-07-29T18:16:38.387Z,2.05
2022-07-29T18:19:05.090Z,1.90
2022-07-29T18:21:43.536Z,2.80
2022-07-29T18:24:17.989Z,2.85
2022-07-29T18:26:44.561Z,3.20
2022-07-29T18:29:11.012Z,3.38
2022-07-29T18:31:37.629Z,3.10
2022-07-29T18:34:04.166Z,2.20
2022-07-29T18:36:30.809Z,1.95
2022-07-29T18:38:57.249Z,2.45
2022-07-29T18:41:23.712Z,1.55
2022-07-29T18:43:50.139Z,1.90
2022-07-29T18:46:16.627Z,1.40
2022-07-29T18:48:43.110Z,1.50
2022-07-29T18:51:09.712Z,1.60
2022-07-29T18:53:37.051Z,1.80
2022-07-29T18:56:03.881Z,1.60
2022-07-29T18:58:30.399Z,1.52
2022-07-29T19:00:56.838Z,1.55
2022-07-29T19:03:23.277Z,1.70
2022-07-29T19:05:49.930Z,1.50
2022-07-29T19:08:16.359Z,1.30
2022-07-29T19:10:42.896Z,1.17
2022-07-29T19:13:09.632Z,1.20
2022-07-29T19:15:39.995Z,1.50
2022-07-29T19:18:07.121Z,1.42
2022-07-29T19:20:33.777Z,1.55
2022-07-29T19:23:00.221Z,1.50
2022-07-29T19:25:26.678Z,1.30
2022-07-29T19:27:53.109Z,1.25
2022-07-29T19:30:19.777Z,1.48
2022-07-29T19:32:46.441Z,1.58
2022-07-29T19:35:25.187Z,1.20
2022-07-29T19:37:52.632Z,1.58
2022-07-29T19:40:20.020Z,1.75
2022-07-29T19:42:48.190Z,1.77
2022-07-29T19:45:14.683Z,1.60
2022-07-29T19:47:41.148Z,1.88
2022-07-29T19:50:08.439Z,1.00
2022-07-29T19:52:35.170Z,1.40
2022-07-29T19:55:07.071Z,1.40
2022-07-29T19:57:40.966Z,1.40
2022-07-29T20:00:11.139Z,1.30
2022-07-29T20:02:38.734Z,1.33
2022-07-29T20:05:06.036Z,1.50
2022-07-29T20:07:32.519Z,1.80
2022-07-29T20:09:59.312Z,1.65
2022-07-29T20:12:25.823Z,2.30
2022-07-29T20:14:52.893Z,2.20
2022-07-29T20:17:22.039Z,2.00
2022-07-29T20:19:49.795Z,2.50
2022-07-29T20:22:21.067Z,2.20
2022-07-29T20:24:48.335Z,2.33
2022-07-29T20:27:14.822Z,2.42
2022-07-29T20:29:41.274Z,2.45
2022-07-29T20:32:07.825Z,2.00
2022-07-29T20:34:34.378Z,2.40
2022-07-29T20:37:02.698Z,2.35
2022-07-29T20:39:29.452Z,2.03
2022-07-29T20:41:56.142Z,2.70
2022-07-29T20:44:24.204Z,2.92
2022-07-29T20:46:50.681Z,2.70
2022-07-29T20:49:17.363Z,2.80
2022-07-29T20:51:44.256Z,2.90
2022-07-29T20:54:11.146Z,2.85
2022-07-29T20:56:38.220Z,2.85
2022-07-29T20:59:04.737Z,2.80
2022-07-29T21:01:31.215Z,3.05
2022-07-29T21:03:57.741Z,3.00
2022-07-29T21:06:24.214Z,2.60
2022-07-29T21:08:50.658Z,3.30
2022-07-29T21:11:17.676Z,3.05
2022-07-29T21:14:04.193Z,3.40
2022-07-29T21:16:33.326Z,2.95
2022-07-29T21:18:59.864Z,4.03
2022-07-29T21:21:26.885Z,3.45
2022-07-29T21:23:53.336Z,3.60
2022-07-29T21:26:19.911Z,4.35
2022-07-29T21:28:46.387Z,4.00
2022-07-29T21:31:16.968Z,4.30
2022-07-29T21:33:46.319Z,3.97
2022-07-29T21:36:46.805Z,4.35
2022-07-29T21:39:06.714Z,4.10
2022-07-29T21:44:00.067Z,3.55
2022-07-29T21:46:28.104Z,4.50
2022-07-29T21:48:54.624Z,3.80
2022-07-29T21:51:21.164Z,4.05
2022-07-29T21:53:47.622Z,4.38
2022-07-29T21:56:14.967Z,4.35
2022-07-29T21:58:42.008Z,4.03
2022-07-29T22:01:08.483Z,4.22
2022-07-29T22:03:35.027Z,3.88
2022-07-29T22:06:01.521Z,3.72
2022-07-29T22:08:27.936Z,4.10
2022-07-29T22:10:54.381Z,4.65
2022-07-29T22:13:20.879Z,3.78
2022-07-29T22:15:47.450Z,3.95
2022-07-29T22:18:20.458Z,3.83
2022-07-29T22:20:47.823Z,3.97
2022-07-29T22:23:14.289Z,3.58
2022-07-29T22:25:40.748Z,4.03
2022-07-29T22:28:07.218Z,3.63
2022-07-29T22:30:33.719Z,3.42
2022-07-29T22:33:00.322Z,3.22
2022-07-29T22:35:26.862Z,2.90
2022-07-29T22:37:54.153Z,2.67
2022-07-29T22:40:20.722Z,2.50
2022-07-29T22:42:47.256Z,2.65
2022-07-29T22:45:13.788Z,2.40
2022-07-29T22:47:48.133Z,2.40
2022-07-29T22:50:15.614Z,3.20
2022-07-29T22:52:42.193Z,2.78
2022-07-29T22:55:08.833Z,2.47
2022-07-29T22:57:35.451Z,2.67
2022-07-29T23:00:02.415Z,2.33
2022-07-29T23:02:29.432Z,2.47
2022-07-29T23:04:55.990Z,2.50
2022-07-29T23:07:23.278Z,2.03
2022-07-29T23:09:49.717Z,2.58
2022-07-29T23:12:16.151Z,2.47
2022-07-29T23:14:42.621Z,2.30
2022-07-29T23:17:09.135Z,2.40
2022-07-29T23:19:35.638Z,3.03
2022-07-29T23:22:02.080Z,2.80
2022-07-29T23:24:28.549Z,2.08
2022-07-29T23:26:55.049Z,3.10
2022-07-29T23:29:21.593Z,2.72
2022-07-29T23:31:48.512Z,2.85
2022-07-29T23:34:15.404Z,2.70
2022-07-29T23:36:42.410Z,3.20
2022-07-29T23:39:11.336Z,2.90
2022-07-29T23:41:38.004Z,3.03
2022-07-29T23:44:04.998Z,3.00
2022-07-29T23:46:31.487Z,3.17
2022-07-29T23:48:58.021Z,3.53
2022-07-29T23:51:24.895Z,2.83
2022-07-29T23:53:53.663Z,2.67
2022-07-29T23:56:21.115Z,3.25
2022-07-29T23:58:47.592Z,2.92
